IGO646M VOMM-VOBL
Flight info
| Callsign | IGO646M |
|---|---|
| Flight time | 0h 31m |
| Altitude | 20000 |
| Route | MMV W117 BIA |
| Aircraft | A320/M-SDE3FGHIRWY/LB1 |
Departure
| Time | 2026-04-30 08:31 |
|---|---|
| Airport | Chennai International Airport (VOMM) |
Arrival
| Time | 2026-04-30 09:02 |
|---|---|
| Airport | Kempegowda International Airport Bengaluru (VOBL) |
| Time | Latitude | Longitude | Altitude | Speed | Heading |
|---|---|---|---|---|---|
| 2026-04-30 07:53 | 12.98395 | 80.16444 | 56 ft | 0 kts | 161° |
| 2026-04-30 08:16 | 12.98406 | 80.16440 | 48 ft | 4 kts | 161° |
| 2026-04-30 08:16 | 12.98432 | 80.16430 | 49 ft | 4 kts | 154° |
| 2026-04-30 08:16 | 12.98453 | 80.16417 | 51 ft | 2 kts | 130° |
| 2026-04-30 08:16 | 12.98456 | 80.16412 | 50 ft | 0 kts | 129° |
| 2026-04-30 08:19 | 12.98458 | 80.16410 | 50 ft | 0 kts | 66° |
| 2026-04-30 08:24 | 12.98472 | 80.16441 | 56 ft | 9 kts | 66° |
| 2026-04-30 08:24 | 12.98504 | 80.16521 | 52 ft | 17 kts | 69° |
| 2026-04-30 08:24 | 12.98551 | 80.16651 | 53 ft | 21 kts | 68° |
| 2026-04-30 08:25 | 12.98597 | 80.16762 | 51 ft | 6 kts | 48° |
| 2026-04-30 08:25 | 12.98645 | 80.16759 | 51 ft | 8 kts | 338° |
| 2026-04-30 08:25 | 12.98710 | 80.16733 | 55 ft | 11 kts | 339° |
| 2026-04-30 08:25 | 12.98768 | 80.16761 | 53 ft | 10 kts | 67° |
| 2026-04-30 08:26 | 12.98796 | 80.16839 | 51 ft | 14 kts | 69° |
| 2026-04-30 08:26 | 12.98842 | 80.16961 | 53 ft | 22 kts | 68° |
| 2026-04-30 08:26 | 12.98902 | 80.17123 | 56 ft | 24 kts | 69° |
| 2026-04-30 08:26 | 12.98961 | 80.17253 | 54 ft | 19 kts | 59° |
| 2026-04-30 08:27 | 12.99015 | 80.17384 | 57 ft | 21 kts | 69° |
| 2026-04-30 08:27 | 12.99071 | 80.17532 | 57 ft | 23 kts | 69° |
| 2026-04-30 08:27 | 12.99112 | 80.17641 | 56 ft | 16 kts | 69° |
| 2026-04-30 08:27 | 12.99163 | 80.17698 | 59 ft | 10 kts | 0° |
| 2026-04-30 08:28 | 12.99210 | 80.17683 | 53 ft | 0 kts | 339° |
| 2026-04-30 08:28 | 12.99212 | 80.17682 | 54 ft | 2 kts | 339° |
| 2026-04-30 08:29 | 12.99247 | 80.17669 | 58 ft | 7 kts | 339° |
| 2026-04-30 08:29 | 12.99289 | 80.17637 | 59 ft | 8 kts | 289° |
| 2026-04-30 08:29 | 12.99279 | 80.17595 | 56 ft | 0 kts | 248° |
| 2026-04-30 08:30 | 12.99245 | 80.17510 | 55 ft | 44 kts | 249° |
| 2026-04-30 08:31 | 12.99045 | 80.16977 | 51 ft | 112 kts | 249° |
| 2026-04-30 08:31 | 12.98699 | 80.16065 | 64 ft | 160 kts | 248° |
| 2026-04-30 08:31 | 12.98310 | 80.14986 | 750 ft | 160 kts | 250° |
| 2026-04-30 08:31 | 12.97993 | 80.13900 | 1406 ft | 165 kts | 263° |
| 2026-04-30 08:32 | 12.98259 | 80.12676 | 1726 ft | 189 kts | 286° |
| 2026-04-30 08:32 | 12.98692 | 80.11321 | 2047 ft | 212 kts | 286° |
| 2026-04-30 08:32 | 12.99144 | 80.09819 | 2422 ft | 235 kts | 285° |
| 2026-04-30 08:32 | 12.99644 | 80.08124 | 2902 ft | 258 kts | 285° |
| 2026-04-30 08:33 | 13.00170 | 80.06316 | 3648 ft | 267 kts | 285° |
| 2026-04-30 08:33 | 13.00697 | 80.04495 | 4530 ft | 271 kts | 286° |
| 2026-04-30 08:33 | 13.01231 | 80.02625 | 5345 ft | 276 kts | 286° |
| 2026-04-30 08:33 | 13.01775 | 80.00717 | 5678 ft | 279 kts | 286° |
| 2026-04-30 08:34 | 13.02320 | 79.98801 | 5783 ft | 279 kts | 286° |
| 2026-04-30 08:34 | 13.02865 | 79.96882 | 5802 ft | 279 kts | 286° |
| 2026-04-30 08:34 | 13.03402 | 79.94988 | 5813 ft | 279 kts | 286° |
| 2026-04-30 08:34 | 13.03947 | 79.93066 | 5798 ft | 279 kts | 286° |
| 2026-04-30 08:35 | 13.04488 | 79.91160 | 5808 ft | 278 kts | 287° |
| 2026-04-30 08:35 | 13.05026 | 79.89268 | 5809 ft | 279 kts | 286° |
| 2026-04-30 08:35 | 13.05569 | 79.87352 | 5809 ft | 278 kts | 286° |
| 2026-04-30 08:35 | 13.06105 | 79.85463 | 5803 ft | 279 kts | 287° |
| 2026-04-30 08:36 | 13.06645 | 79.83553 | 5809 ft | 279 kts | 287° |
| 2026-04-30 08:36 | 13.07187 | 79.81637 | 5809 ft | 278 kts | 287° |
| 2026-04-30 08:36 | 13.07725 | 79.79725 | 5832 ft | 280 kts | 286° |
| 2026-04-30 08:36 | 13.08228 | 79.77785 | 6524 ft | 284 kts | 285° |
| 2026-04-30 08:37 | 13.08714 | 79.75810 | 7410 ft | 287 kts | 285° |
| 2026-04-30 08:37 | 13.09201 | 79.73802 | 8203 ft | 292 kts | 285° |
| 2026-04-30 08:37 | 13.09694 | 79.71781 | 8974 ft | 298 kts | 285° |
| 2026-04-30 08:37 | 13.10206 | 79.69690 | 9766 ft | 303 kts | 285° |
| 2026-04-30 08:38 | 13.10736 | 79.67536 | 10156 ft | 323 kts | 285° |
| 2026-04-30 08:38 | 13.11299 | 79.65262 | 10534 ft | 338 kts | 285° |
| 2026-04-30 08:38 | 13.11887 | 79.62892 | 11202 ft | 343 kts | 285° |
| 2026-04-30 08:38 | 13.12482 | 79.60495 | 11925 ft | 347 kts | 285° |
| 2026-04-30 08:39 | 13.13072 | 79.58116 | 12640 ft | 349 kts | 285° |
| 2026-04-30 08:39 | 13.13672 | 79.55692 | 13385 ft | 352 kts | 285° |
| 2026-04-30 08:39 | 13.14073 | 79.54069 | 13844 ft | 354 kts | 285° |
| 2026-04-30 08:39 | 13.14680 | 79.51602 | 14480 ft | 356 kts | 285° |
| 2026-04-30 08:40 | 13.15289 | 79.49131 | 15103 ft | 359 kts | 285° |
| 2026-04-30 08:40 | 13.15904 | 79.46638 | 15729 ft | 362 kts | 284° |
| 2026-04-30 08:40 | 13.16731 | 79.43297 | 16572 ft | 365 kts | 284° |
| 2026-04-30 08:40 | 13.17148 | 79.41607 | 16980 ft | 367 kts | 284° |
| 2026-04-30 08:41 | 13.17776 | 79.39057 | 17599 ft | 370 kts | 284° |
| 2026-04-30 08:41 | 13.18414 | 79.36471 | 18192 ft | 373 kts | 284° |
| 2026-04-30 08:41 | 13.19042 | 79.33914 | 18741 ft | 375 kts | 284° |
| 2026-04-30 08:41 | 13.19683 | 79.31308 | 19292 ft | 377 kts | 284° |
| 2026-04-30 08:42 | 13.20329 | 79.28694 | 19683 ft | 379 kts | 284° |
| 2026-04-30 08:42 | 13.20979 | 79.26066 | 19794 ft | 377 kts | 284° |
| 2026-04-30 08:42 | 13.21608 | 79.23528 | 19827 ft | 367 kts | 284° |
| 2026-04-30 08:42 | 13.22237 | 79.20992 | 19833 ft | 364 kts | 284° |
| 2026-04-30 08:43 | 13.22860 | 79.18472 | 19831 ft | 363 kts | 284° |
| 2026-04-30 08:43 | 13.23474 | 79.15979 | 19836 ft | 363 kts | 284° |
| 2026-04-30 08:43 | 13.24096 | 79.13456 | 19837 ft | 363 kts | 284° |
| 2026-04-30 08:43 | 13.24720 | 79.10930 | 19841 ft | 363 kts | 284° |
| 2026-04-30 08:44 | 13.25331 | 79.08447 | 19848 ft | 363 kts | 284° |
| 2026-04-30 08:44 | 13.25953 | 79.05929 | 19851 ft | 363 kts | 284° |
| 2026-04-30 08:44 | 13.26576 | 79.03411 | 19853 ft | 363 kts | 284° |
| 2026-04-30 08:44 | 13.27198 | 79.00892 | 19861 ft | 363 kts | 284° |
| 2026-04-30 08:45 | 13.27812 | 78.98401 | 19867 ft | 364 kts | 284° |
| 2026-04-30 08:45 | 13.28436 | 78.95868 | 19877 ft | 364 kts | 284° |
| 2026-04-30 08:45 | 13.29046 | 78.93343 | 19884 ft | 364 kts | 282° |
| 2026-04-30 08:45 | 13.29329 | 78.90753 | 19890 ft | 364 kts | 270° |
| 2026-04-30 08:46 | 13.29180 | 78.88185 | 19893 ft | 364 kts | 265° |
| 2026-04-30 08:46 | 13.28986 | 78.85582 | 19903 ft | 365 kts | 266° |
| 2026-04-30 08:46 | 13.28797 | 78.82982 | 19908 ft | 365 kts | 266° |
| 2026-04-30 08:46 | 13.28614 | 78.80412 | 19911 ft | 365 kts | 266° |
| 2026-04-30 08:47 | 13.28429 | 78.77796 | 19917 ft | 365 kts | 266° |
| 2026-04-30 08:47 | 13.28244 | 78.75193 | 19921 ft | 365 kts | 266° |
| 2026-04-30 08:47 | 13.28058 | 78.72588 | 19926 ft | 365 kts | 266° |
| 2026-04-30 08:47 | 13.27870 | 78.69984 | 19921 ft | 370 kts | 266° |
| 2026-04-30 08:48 | 13.27677 | 78.67353 | 19902 ft | 371 kts | 266° |
| 2026-04-30 08:48 | 13.27486 | 78.64754 | 19282 ft | 360 kts | 266° |
| 2026-04-30 08:48 | 13.27302 | 78.62228 | 18497 ft | 357 kts | 266° |
| 2026-04-30 08:48 | 13.27118 | 78.59710 | 17930 ft | 347 kts | 266° |
| 2026-04-30 08:49 | 13.26941 | 78.57290 | 17514 ft | 333 kts | 266° |
| 2026-04-30 08:49 | 13.26768 | 78.54955 | 17121 ft | 321 kts | 266° |
| 2026-04-30 08:49 | 13.26603 | 78.52709 | 16740 ft | 311 kts | 266° |
| 2026-04-30 08:49 | 13.26446 | 78.50521 | 16373 ft | 302 kts | 266° |
| 2026-04-30 08:50 | 13.26294 | 78.48395 | 16011 ft | 302 kts | 266° |
| 2026-04-30 08:50 | 13.26242 | 78.46236 | 15648 ft | 301 kts | 276° |
| 2026-04-30 08:50 | 13.26547 | 78.44115 | 15282 ft | 299 kts | 280° |
| 2026-04-30 08:50 | 13.26888 | 78.42023 | 14915 ft | 298 kts | 280° |
| 2026-04-30 08:51 | 13.27226 | 78.39907 | 14560 ft | 300 kts | 280° |
| 2026-04-30 08:51 | 13.27563 | 78.37781 | 14198 ft | 302 kts | 280° |
| 2026-04-30 08:51 | 13.27900 | 78.35663 | 13832 ft | 304 kts | 280° |
| 2026-04-30 08:51 | 13.28246 | 78.33498 | 13432 ft | 306 kts | 280° |
| 2026-04-30 08:52 | 13.28589 | 78.31341 | 13208 ft | 301 kts | 280° |
| 2026-04-30 08:52 | 13.28917 | 78.29280 | 13102 ft | 292 kts | 280° |
| 2026-04-30 08:52 | 13.29238 | 78.27245 | 12990 ft | 284 kts | 280° |
| 2026-04-30 08:52 | 13.29549 | 78.25266 | 12871 ft | 277 kts | 280° |
| 2026-04-30 08:53 | 13.29853 | 78.23335 | 12752 ft | 269 kts | 280° |
| 2026-04-30 08:53 | 13.30146 | 78.21476 | 12633 ft | 262 kts | 278° |
| 2026-04-30 08:53 | 13.30067 | 78.19646 | 12512 ft | 255 kts | 252° |
| 2026-04-30 08:53 | 13.29215 | 78.18080 | 12395 ft | 250 kts | 232° |
| 2026-04-30 08:54 | 13.28126 | 78.16707 | 12156 ft | 249 kts | 229° |
| 2026-04-30 08:54 | 13.26972 | 78.15318 | 11864 ft | 260 kts | 229° |
| 2026-04-30 08:54 | 13.25793 | 78.13907 | 11460 ft | 261 kts | 229° |
| 2026-04-30 08:54 | 13.24604 | 78.12486 | 11057 ft | 260 kts | 229° |
| 2026-04-30 08:55 | 13.23447 | 78.11101 | 10670 ft | 258 kts | 229° |
| 2026-04-30 08:55 | 13.22264 | 78.09685 | 10271 ft | 257 kts | 229° |
| 2026-04-30 08:55 | 13.21115 | 78.08306 | 9898 ft | 260 kts | 229° |
| 2026-04-30 08:55 | 13.19942 | 78.06900 | 9488 ft | 264 kts | 229° |
| 2026-04-30 08:56 | 13.18733 | 78.05457 | 9063 ft | 268 kts | 229° |
| 2026-04-30 08:56 | 13.17529 | 78.04030 | 8883 ft | 258 kts | 229° |
| 2026-04-30 08:56 | 13.16384 | 78.02678 | 8564 ft | 250 kts | 229° |
| 2026-04-30 08:56 | 13.15257 | 78.01327 | 8132 ft | 247 kts | 234° |
| 2026-04-30 08:57 | 13.14632 | 77.99727 | 7710 ft | 241 kts | 266° |
| 2026-04-30 08:57 | 13.14951 | 77.98116 | 7413 ft | 233 kts | 301° |
| 2026-04-30 08:57 | 13.15814 | 77.96679 | 7267 ft | 239 kts | 301° |
| 2026-04-30 08:57 | 13.16655 | 77.95224 | 7030 ft | 237 kts | 301° |
| 2026-04-30 08:58 | 13.17495 | 77.93767 | 6787 ft | 235 kts | 301° |
| 2026-04-30 08:58 | 13.18325 | 77.92325 | 6538 ft | 234 kts | 301° |
| 2026-04-30 08:58 | 13.19152 | 77.90890 | 6285 ft | 232 kts | 301° |
| 2026-04-30 08:58 | 13.19968 | 77.89462 | 6028 ft | 231 kts | 298° |
| 2026-04-30 08:59 | 13.20462 | 77.87926 | 5770 ft | 231 kts | 279° |
| 2026-04-30 08:59 | 13.20569 | 77.86288 | 5487 ft | 226 kts | 272° |
| 2026-04-30 08:59 | 13.20579 | 77.84695 | 5216 ft | 218 kts | 272° |
| 2026-04-30 08:59 | 13.20587 | 77.83191 | 4968 ft | 204 kts | 272° |
| 2026-04-30 09:00 | 13.20598 | 77.81871 | 4729 ft | 194 kts | 272° |
| 2026-04-30 09:00 | 13.20610 | 77.80517 | 4494 ft | 184 kts | 272° |
| 2026-04-30 09:00 | 13.20621 | 77.79240 | 4261 ft | 171 kts | 273° |
| 2026-04-30 09:00 | 13.20633 | 77.78035 | 4045 ft | 165 kts | 272° |
| 2026-04-30 09:01 | 13.20642 | 77.76935 | 3830 ft | 147 kts | 273° |
| 2026-04-30 09:01 | 13.20652 | 77.75907 | 3657 ft | 144 kts | 271° |
| 2026-04-30 09:01 | 13.20661 | 77.74901 | 3477 ft | 141 kts | 272° |
| 2026-04-30 09:01 | 13.20670 | 77.73895 | 3275 ft | 139 kts | 271° |
| 2026-04-30 09:02 | 13.20689 | 77.71906 | 3037 ft | 140 kts | 271° |
| 2026-04-30 09:02 | 13.20698 | 77.71107 | 3011 ft | 80 kts | 271° |
| 2026-04-30 09:02 | 13.20703 | 77.70630 | 3011 ft | 40 kts | 270° |
| 2026-04-30 09:03 | 13.20674 | 77.70423 | 3011 ft | 23 kts | 251° |
| 2026-04-30 09:03 | 13.20621 | 77.70314 | 3012 ft | 0 kts | 240° |
| 2026-04-30 09:03 | 13.20619 | 77.70310 | 3012 ft | 2 kts | 240° |
| 2026-04-30 09:03 | 13.20609 | 77.70293 | 3012 ft | 4 kts | 239° |
| 2026-04-30 09:04 | 13.20587 | 77.70272 | 3012 ft | 5 kts | 211° |
| 2026-04-30 09:04 | 13.20547 | 77.70281 | 3012 ft | 7 kts | 147° |
| 2026-04-30 09:04 | 13.20531 | 77.70332 | 3012 ft | 9 kts | 89° |
| 2026-04-30 09:04 | 13.20506 | 77.70388 | 3011 ft | 10 kts | 155° |
| 2026-04-30 09:05 | 13.20428 | 77.70392 | 3011 ft | 12 kts | 181° |
| 2026-04-30 09:05 | 13.20333 | 77.70391 | 3011 ft | 15 kts | 180° |
| 2026-04-30 09:05 | 13.20256 | 77.70401 | 3011 ft | 12 kts | 151° |
| 2026-04-30 09:05 | 13.20246 | 77.70475 | 3011 ft | 12 kts | 90° |
| 2026-04-30 09:06 | 13.20245 | 77.70567 | 3011 ft | 14 kts | 91° |
| 2026-04-30 09:06 | 13.20244 | 77.70675 | 3011 ft | 16 kts | 91° |
| 2026-04-30 09:06 | 13.20243 | 77.70799 | 3011 ft | 18 kts | 91° |
| 2026-04-30 09:06 | 13.20242 | 77.70938 | 3011 ft | 21 kts | 90° |
| 2026-04-30 09:07 | 13.20241 | 77.71069 | 3011 ft | 13 kts | 90° |
| 2026-04-30 09:07 | 13.20239 | 77.71135 | 3011 ft | 0 kts | 103° |
| 2026-04-30 09:07 | 13.20238 | 77.71135 | 3011 ft | 0 kts | 116° |
| 2026-04-30 09:07 | 13.20224 | 77.71140 | 3011 ft | 6 kts | 164° |
| 2026-04-30 09:08 | 13.20177 | 77.71146 | 3011 ft | 6 kts | 172° |
| 2026-04-30 09:08 | 13.20159 | 77.71148 | 3011 ft | 1 kts | 172° |
| 2026-04-30 09:08 | 13.20157 | 77.71149 | 3011 ft | 0 kts | 172° |
| 2026-04-30 09:08 | 13.20156 | 77.71149 | 3011 ft | 0 kts | 172° |